sensor_id;sensor_type;location;lat;lon;timestamp;temperature;humidity
43249;DHT22;29216;51.248;6.808;2023-03-04T00:01:40;5.60;99.90
43249;DHT22;29216;51.248;6.808;2023-03-04T00:04:06;5.60;99.90
43249;DHT22;29216;51.248;6.808;2023-03-04T00:06:31;5.60;99.90
43249;DHT22;29216;51.248;6.808;2023-03-04T00:08:57;5.60;99.90
43249;DHT22;29216;51.248;6.808;2023-03-04T00:11:23;5.60;99.90
43249;DHT22;29216;51.248;6.808;2023-03-04T00:13:49;5.60;99.90
43249;DHT22;29216;51.248;6.808;2023-03-04T00:16:15;5.60;99.90
43249;DHT22;29216;51.248;6.808;2023-03-04T00:18:41;5.60;99.90
43249;DHT22;29216;51.248;6.808;2023-03-04T00:21:06;5.50;99.90
43249;DHT22;29216;51.248;6.808;2023-03-04T00:23:32;5.50;99.90
43249;DHT22;29216;51.248;6.808;2023-03-04T00:25:58;5.60;99.90
43249;DHT22;29216;51.248;6.808;2023-03-04T00:28:23;5.60;99.90
43249;DHT22;29216;51.248;6.808;2023-03-04T00:30:49;5.60;99.90
43249;DHT22;29216;51.248;6.808;2023-03-04T00:33:15;5.60;99.90
43249;DHT22;29216;51.248;6.808;2023-03-04T00:35:40;5.60;99.90
43249;DHT22;29216;51.248;6.808;2023-03-04T00:38:06;5.60;99.90
43249;DHT22;29216;51.248;6.808;2023-03-04T00:40:32;5.60;99.90
43249;DHT22;29216;51.248;6.808;2023-03-04T00:42:57;5.60;99.90
43249;DHT22;29216;51.248;6.808;2023-03-04T00:45:25;5.50;99.90
43249;DHT22;29216;51.248;6.808;2023-03-04T00:47:51;5.60;99.90
43249;DHT22;29216;51.248;6.808;2023-03-04T00:50:17;5.60;99.90
43249;DHT22;29216;51.248;6.808;2023-03-04T00:52:42;5.50;99.90
43249;DHT22;29216;51.248;6.808;2023-03-04T00:55:08;5.50;99.90
43249;DHT22;29216;51.248;6.808;2023-03-04T00:57:34;5.50;99.90
43249;DHT22;29216;51.248;6.808;2023-03-04T00:59:59;5.50;99.90
43249;DHT22;29216;51.248;6.808;2023-03-04T01:02:25;5.50;99.90
43249;DHT22;29216;51.248;6.808;2023-03-04T01:04:51;5.50;99.90
43249;DHT22;29216;51.248;6.808;2023-03-04T01:07:16;5.60;99.90
43249;DHT22;29216;51.248;6.808;2023-03-04T01:09:42;5.60;99.90
43249;DHT22;29216;51.248;6.808;2023-03-04T01:12:08;5.60;99.90
43249;DHT22;29216;51.248;6.808;2023-03-04T01:14:33;5.50;99.90
43249;DHT22;29216;51.248;6.808;2023-03-04T01:16:59;5.50;99.90
43249;DHT22;29216;51.248;6.808;2023-03-04T01:19:25;5.50;99.90
43249;DHT22;29216;51.248;6.808;2023-03-04T01:21:50;5.50;99.90
43249;DHT22;29216;51.248;6.808;2023-03-04T01:24:16;5.50;99.90
43249;DHT22;29216;51.248;6.808;2023-03-04T01:26:42;5.50;99.90
43249;DHT22;29216;51.248;6.808;2023-03-04T01:29:08;5.50;99.90
43249;DHT22;29216;51.248;6.808;2023-03-04T01:31:33;5.50;99.90
43249;DHT22;29216;51.248;6.808;2023-03-04T01:33:59;5.50;99.90
43249;DHT22;29216;51.248;6.808;2023-03-04T01:36:24;5.50;99.90
43249;DHT22;29216;51.248;6.808;2023-03-04T01:38:50;5.50;99.90
43249;DHT22;29216;51.248;6.808;2023-03-04T01:41:18;5.50;99.90
43249;DHT22;29216;51.248;6.808;2023-03-04T01:43:46;5.60;99.90
43249;DHT22;29216;51.248;6.808;2023-03-04T01:46:12;5.50;99.90
43249;DHT22;29216;51.248;6.808;2023-03-04T01:48:40;5.50;99.90
43249;DHT22;29216;51.248;6.808;2023-03-04T01:51:11;5.50;99.90
43249;DHT22;29216;51.248;6.808;2023-03-04T01:53:37;5.60;99.90
43249;DHT22;29216;51.248;6.808;2023-03-04T01:56:14;5.60;99.90
43249;DHT22;29216;51.248;6.808;2023-03-04T01:58:39;5.60;99.90
43249;DHT22;29216;51.248;6.808;2023-03-04T02:01:05;5.50;99.90
43249;DHT22;29216;51.248;6.808;2023-03-04T02:03:31;5.50;99.90
43249;DHT22;29216;51.248;6.808;2023-03-04T02:05:56;5.50;99.90
43249;DHT22;29216;51.248;6.808;2023-03-04T02:08:23;5.50;99.90
43249;DHT22;29216;51.248;6.808;2023-03-04T02:10:50;5.50;99.90
43249;DHT22;29216;51.248;6.808;2023-03-04T02:13:16;5.50;99.90
43249;DHT22;29216;51.248;6.808;2023-03-04T02:15:43;5.50;99.90
43249;DHT22;29216;51.248;6.808;2023-03-04T02:18:20;5.50;99.90
43249;DHT22;29216;51.248;6.808;2023-03-04T02:21:04;5.50;99.90
43249;DHT22;29216;51.248;6.808;2023-03-04T02:23:39;5.60;99.90
43249;DHT22;29216;51.248;6.808;2023-03-04T02:26:21;5.60;99.90
43249;DHT22;29216;51.248;6.808;2023-03-04T02:28:50;5.60;99.90
43249;DHT22;29216;51.248;6.808;2023-03-04T02:33:59;5.60;99.90
43249;DHT22;29216;51.248;6.808;2023-03-04T02:36:26;5.60;99.90
43249;DHT22;29216;51.248;6.808;2023-03-04T02:38:53;5.60;99.90
43249;DHT22;29216;51.248;6.808;2023-03-04T02:41:22;5.60;99.90
43249;DHT22;29216;51.248;6.808;2023-03-04T02:43:50;5.60;99.90
43249;DHT22;29216;51.248;6.808;2023-03-04T02:46:17;5.70;99.90
43249;DHT22;29216;51.248;6.808;2023-03-04T02:48:43;5.70;99.90
43249;DHT22;29216;51.248;6.808;2023-03-04T02:51:09;5.70;99.90
43249;DHT22;29216;51.248;6.808;2023-03-04T02:53:34;5.70;99.90
43249;DHT22;29216;51.248;6.808;2023-03-04T02:56:00;5.70;99.90
43249;DHT22;29216;51.248;6.808;2023-03-04T02:58:25;5.60;99.90
43249;DHT22;29216;51.248;6.808;2023-03-04T03:00:51;5.60;99.90
43249;DHT22;29216;51.248;6.808;2023-03-04T03:03:17;5.60;99.90
43249;DHT22;29216;51.248;6.808;2023-03-04T03:05:42;5.70;99.90
43249;DHT22;29216;51.248;6.808;2023-03-04T03:08:08;5.70;99.90
43249;DHT22;29216;51.248;6.808;2023-03-04T03:10:34;5.60;99.90
43249;DHT22;29216;51.248;6.808;2023-03-04T03:12:59;5.70;99.90
43249;DHT22;29216;51.248;6.808;2023-03-04T03:15:25;5.60;99.90
43249;DHT22;29216;51.248;6.808;2023-03-04T03:17:51;5.60;99.90
43249;DHT22;29216;51.248;6.808;2023-03-04T03:20:17;5.70;99.90
43249;DHT22;29216;51.248;6.808;2023-03-04T03:22:43;5.70;99.90
43249;DHT22;29216;51.248;6.808;2023-03-04T03:25:10;5.60;99.90
43249;DHT22;29216;51.248;6.808;2023-03-04T03:27:36;5.70;99.90
43249;DHT22;29216;51.248;6.808;2023-03-04T03:30:03;5.70;99.90
43249;DHT22;29216;51.248;6.808;2023-03-04T03:32:28;5.70;99.90
43249;DHT22;29216;51.248;6.808;2023-03-04T03:34:54;5.70;99.90
43249;DHT22;29216;51.248;6.808;2023-03-04T03:37:19;5.80;99.90
43249;DHT22;29216;51.248;6.808;2023-03-04T03:39:45;5.80;99.90
43249;DHT22;29216;51.248;6.808;2023-03-04T03:42:11;5.80;99.90
43249;DHT22;29216;51.248;6.808;2023-03-04T03:44:36;5.70;99.90
43249;DHT22;29216;51.248;6.808;2023-03-04T03:47:02;5.70;99.90
43249;DHT22;29216;51.248;6.808;2023-03-04T03:49:27;5.80;99.90
43249;DHT22;29216;51.248;6.808;2023-03-04T03:51:53;5.80;99.90
43249;DHT22;29216;51.248;6.808;2023-03-04T03:54:19;5.70;99.90
43249;DHT22;29216;51.248;6.808;2023-03-04T03:56:44;5.70;99.90
43249;DHT22;29216;51.248;6.808;2023-03-04T03:59:10;5.80;99.90
43249;DHT22;29216;51.248;6.808;2023-03-04T04:01:36;5.80;99.90
43249;DHT22;29216;51.248;6.808;2023-03-04T04:04:02;5.80;99.90
43249;DHT22;29216;51.248;6.808;2023-03-04T04:06:28;5.80;99.90
43249;DHT22;29216;51.248;6.808;2023-03-04T04:08:54;5.80;99.90
43249;DHT22;29216;51.248;6.808;2023-03-04T04:11:19;5.80;99.90
43249;DHT22;29216;51.248;6.808;2023-03-04T04:13:45;5.90;99.90
43249;DHT22;29216;51.248;6.808;2023-03-04T04:16:11;5.90;99.90
43249;DHT22;29216;51.248;6.808;2023-03-04T04:18:36;5.90;99.90
43249;DHT22;29216;51.248;6.808;2023-03-04T04:21:02;5.80;99.90
43249;DHT22;29216;51.248;6.808;2023-03-04T04:23:28;5.80;99.90
43249;DHT22;29216;51.248;6.808;2023-03-04T04:25:55;5.80;99.90
43249;DHT22;29216;51.248;6.808;2023-03-04T04:28:21;5.80;99.90
43249;DHT22;29216;51.248;6.808;2023-03-04T04:30:47;5.80;99.90
43249;DHT22;29216;51.248;6.808;2023-03-04T04:33:12;5.80;99.90
43249;DHT22;29216;51.248;6.808;2023-03-04T04:35:38;5.90;99.90
43249;DHT22;29216;51.248;6.808;2023-03-04T04:38:05;5.90;99.90
43249;DHT22;29216;51.248;6.808;2023-03-04T04:40:30;5.90;99.90
43249;DHT22;29216;51.248;6.808;2023-03-04T04:42:56;5.90;99.90
43249;DHT22;29216;51.248;6.808;2023-03-04T04:45:22;5.90;99.90
43249;DHT22;29216;51.248;6.808;2023-03-04T04:47:52;5.80;99.90
43249;DHT22;29216;51.248;6.808;2023-03-04T04:50:18;5.80;99.90
43249;DHT22;29216;51.248;6.808;2023-03-04T04:52:44;5.80;99.90
43249;DHT22;29216;51.248;6.808;2023-03-04T04:55:10;5.90;99.90
43249;DHT22;29216;51.248;6.808;2023-03-04T04:57:35;5.90;99.90
43249;DHT22;29216;51.248;6.808;2023-03-04T05:00:03;5.90;99.90
43249;DHT22;29216;51.248;6.808;2023-03-04T05:02:29;5.80;99.90
43249;DHT22;29216;51.248;6.808;2023-03-04T05:04:55;5.90;99.90
43249;DHT22;29216;51.248;6.808;2023-03-04T05:07:21;5.90;99.90
43249;DHT22;29216;51.248;6.808;2023-03-04T05:09:47;5.90;99.90
43249;DHT22;29216;51.248;6.808;2023-03-04T05:12:12;5.90;99.90
43249;DHT22;29216;51.248;6.808;2023-03-04T05:14:38;5.80;99.90
43249;DHT22;29216;51.248;6.808;2023-03-04T05:17:03;5.80;99.90
43249;DHT22;29216;51.248;6.808;2023-03-04T05:19:29;5.80;99.90
43249;DHT22;29216;51.248;6.808;2023-03-04T05:21:55;5.90;99.90
43249;DHT22;29216;51.248;6.808;2023-03-04T05:24:20;5.90;99.90
43249;DHT22;29216;51.248;6.808;2023-03-04T05:26:46;5.90;99.90
43249;DHT22;29216;51.248;6.808;2023-03-04T05:29:11;5.80;99.90
43249;DHT22;29216;51.248;6.808;2023-03-04T05:31:37;5.80;99.90
43249;DHT22;29216;51.248;6.808;2023-03-04T05:34:03;5.80;99.90
43249;DHT22;29216;51.248;6.808;2023-03-04T05:36:28;5.80;99.90
43249;DHT22;29216;51.248;6.808;2023-03-04T05:38:54;5.90;99.90
43249;DHT22;29216;51.248;6.808;2023-03-04T05:41:19;5.80;99.90
43249;DHT22;29216;51.248;6.808;2023-03-04T05:43:48;5.80;99.90
43249;DHT22;29216;51.248;6.808;2023-03-04T05:46:15;5.80;99.90
43249;DHT22;29216;51.248;6.808;2023-03-04T05:48:41;5.80;99.90
43249;DHT22;29216;51.248;6.808;2023-03-04T05:51:07;5.80;99.90
43249;DHT22;29216;51.248;6.808;2023-03-04T05:53:33;5.80;99.90
43249;DHT22;29216;51.248;6.808;2023-03-04T05:56:09;5.80;99.90
43249;DHT22;29216;51.248;6.808;2023-03-04T05:58:36;5.70;99.90
43249;DHT22;29216;51.248;6.808;2023-03-04T06:01:02;5.70;99.90
43249;DHT22;29216;51.248;6.808;2023-03-04T06:03:28;5.80;99.90
43249;DHT22;29216;51.248;6.808;2023-03-04T06:05:53;5.70;99.90
43249;DHT22;29216;51.248;6.808;2023-03-04T06:08:19;5.70;99.90
43249;DHT22;29216;51.248;6.808;2023-03-04T06:10:45;5.80;99.90
43249;DHT22;29216;51.248;6.808;2023-03-04T06:13:11;5.80;99.90
43249;DHT22;29216;51.248;6.808;2023-03-04T06:15:38;5.80;99.90
43249;DHT22;29216;51.248;6.808;2023-03-04T06:18:05;5.80;99.90
43249;DHT22;29216;51.248;6.808;2023-03-04T06:20:30;5.80;99.90
43249;DHT22;29216;51.248;6.808;2023-03-04T06:22:56;5.80;99.90
43249;DHT22;29216;51.248;6.808;2023-03-04T06:25:22;5.80;99.90
43249;DHT22;29216;51.248;6.808;2023-03-04T06:27:48;5.80;99.90
43249;DHT22;29216;51.248;6.808;2023-03-04T06:30:15;5.80;99.90
43249;DHT22;29216;51.248;6.808;2023-03-04T06:32:41;5.80;99.90
43249;DHT22;29216;51.248;6.808;2023-03-04T06:35:09;5.80;99.90
43249;DHT22;29216;51.248;6.808;2023-03-04T06:37:36;5.80;99.90
43249;DHT22;29216;51.248;6.808;2023-03-04T06:40:01;5.80;99.90
43249;DHT22;29216;51.248;6.808;2023-03-04T06:42:28;5.80;99.90
43249;DHT22;29216;51.248;6.808;2023-03-04T06:44:53;5.80;99.90
43249;DHT22;29216;51.248;6.808;2023-03-04T06:47:19;5.80;99.90
43249;DHT22;29216;51.248;6.808;2023-03-04T06:49:45;5.80;99.90
43249;DHT22;29216;51.248;6.808;2023-03-04T06:52:10;5.90;99.90
43249;DHT22;29216;51.248;6.808;2023-03-04T06:54:38;5.90;99.90
43249;DHT22;29216;51.248;6.808;2023-03-04T06:57:03;5.90;99.90
43249;DHT22;29216;51.248;6.808;2023-03-04T06:59:29;6.00;99.90
43249;DHT22;29216;51.248;6.808;2023-03-04T07:01:54;5.90;99.90
43249;DHT22;29216;51.248;6.808;2023-03-04T07:04:20;6.00;99.90
43249;DHT22;29216;51.248;6.808;2023-03-04T07:06:48;6.00;99.90
43249;DHT22;29216;51.248;6.808;2023-03-04T07:09:13;6.00;99.90
43249;DHT22;29216;51.248;6.808;2023-03-04T07:11:39;6.00;99.90
43249;DHT22;29216;51.248;6.808;2023-03-04T07:14:04;6.00;99.90
43249;DHT22;29216;51.248;6.808;2023-03-04T07:16:30;6.00;99.90
43249;DHT22;29216;51.248;6.808;2023-03-04T07:18:56;6.00;99.90
43249;DHT22;29216;51.248;6.808;2023-03-04T07:21:21;6.00;99.90
43249;DHT22;29216;51.248;6.808;2023-03-04T07:23:47;6.00;99.90
43249;DHT22;29216;51.248;6.808;2023-03-04T07:26:13;6.10;99.90
43249;DHT22;29216;51.248;6.808;2023-03-04T07:28:38;6.10;99.90
43249;DHT22;29216;51.248;6.808;2023-03-04T07:33:50;6.10;99.90
43249;DHT22;29216;51.248;6.808;2023-03-04T07:36:16;6.10;99.90
43249;DHT22;29216;51.248;6.808;2023-03-04T07:38:45;6.00;99.90
43249;DHT22;29216;51.248;6.808;2023-03-04T07:41:11;6.10;99.90
43249;DHT22;29216;51.248;6.808;2023-03-04T07:43:37;6.10;99.90
43249;DHT22;29216;51.248;6.808;2023-03-04T07:46:05;6.10;99.90
43249;DHT22;29216;51.248;6.808;2023-03-04T07:48:34;6.10;99.90
43249;DHT22;29216;51.248;6.808;2023-03-04T07:51:04;6.20;99.90
43249;DHT22;29216;51.248;6.808;2023-03-04T07:53:30;6.20;99.90
43249;DHT22;29216;51.248;6.808;2023-03-04T07:55:56;6.20;99.90
43249;DHT22;29216;51.248;6.808;2023-03-04T07:58:23;6.20;99.90
43249;DHT22;29216;51.248;6.808;2023-03-04T08:00:48;6.30;99.90
43249;DHT22;29216;51.248;6.808;2023-03-04T08:03:14;6.20;99.90
43249;DHT22;29216;51.248;6.808;2023-03-04T08:05:41;6.30;99.90
43249;DHT22;29216;51.248;6.808;2023-03-04T08:08:06;6.50;99.90
43249;DHT22;29216;51.248;6.808;2023-03-04T08:10:32;6.50;99.90
43249;DHT22;29216;51.248;6.808;2023-03-04T08:12:58;6.50;99.90
43249;DHT22;29216;51.248;6.808;2023-03-04T08:15:23;6.50;99.90
43249;DHT22;29216;51.248;6.808;2023-03-04T08:17:51;6.60;99.90
43249;DHT22;29216;51.248;6.808;2023-03-04T08:20:17;6.60;99.90
43249;DHT22;29216;51.248;6.808;2023-03-04T08:22:43;6.70;99.90
43249;DHT22;29216;51.248;6.808;2023-03-04T08:25:08;6.80;99.90
43249;DHT22;29216;51.248;6.808;2023-03-04T08:27:34;6.90;99.90
43249;DHT22;29216;51.248;6.808;2023-03-04T08:30:03;7.00;99.90
43249;DHT22;29216;51.248;6.808;2023-03-04T08:32:28;7.10;99.90
43249;DHT22;29216;51.248;6.808;2023-03-04T08:34:54;7.20;99.90
43249;DHT22;29216;51.248;6.808;2023-03-04T08:37:21;7.30;99.90
43249;DHT22;29216;51.248;6.808;2023-03-04T08:39:47;7.40;99.90
43249;DHT22;29216;51.248;6.808;2023-03-04T08:42:12;7.50;99.90
43249;DHT22;29216;51.248;6.808;2023-03-04T08:44:38;7.60;99.90
43249;DHT22;29216;51.248;6.808;2023-03-04T08:47:03;7.70;99.90
43249;DHT22;29216;51.248;6.808;2023-03-04T08:49:30;7.90;99.90
43249;DHT22;29216;51.248;6.808;2023-03-04T08:51:55;8.00;99.90
43249;DHT22;29216;51.248;6.808;2023-03-04T08:54:21;8.00;99.90
43249;DHT22;29216;51.248;6.808;2023-03-04T08:56:46;8.00;99.90
43249;DHT22;29216;51.248;6.808;2023-03-04T08:59:12;8.10;99.90
43249;DHT22;29216;51.248;6.808;2023-03-04T09:01:37;8.00;99.90
43249;DHT22;29216;51.248;6.808;2023-03-04T09:04:03;8.00;99.90
43249;DHT22;29216;51.248;6.808;2023-03-04T09:06:29;7.90;99.90
43249;DHT22;29216;51.248;6.808;2023-03-04T09:08:54;7.90;99.90
43249;DHT22;29216;51.248;6.808;2023-03-04T09:11:20;7.90;99.90
43249;DHT22;29216;51.248;6.808;2023-03-04T09:13:46;7.90;99.90
43249;DHT22;29216;51.248;6.808;2023-03-04T09:16:13;7.90;99.90
43249;DHT22;29216;51.248;6.808;2023-03-04T09:18:39;7.90;99.90
43249;DHT22;29216;51.248;6.808;2023-03-04T09:21:06;7.80;99.90
43249;DHT22;29216;51.248;6.808;2023-03-04T09:23:33;7.70;99.90
43249;DHT22;29216;51.248;6.808;2023-03-04T09:25:59;7.70;99.90
43249;DHT22;29216;51.248;6.808;2023-03-04T09:28:24;7.60;99.90
43249;DHT22;29216;51.248;6.808;2023-03-04T09:30:50;7.50;99.90
43249;DHT22;29216;51.248;6.808;2023-03-04T09:33:16;7.50;99.90
43249;DHT22;29216;51.248;6.808;2023-03-04T09:35:42;7.40;99.90
43249;DHT22;29216;51.248;6.808;2023-03-04T09:38:08;7.50;99.90
43249;DHT22;29216;51.248;6.808;2023-03-04T09:40:41;7.50;99.90
43249;DHT22;29216;51.248;6.808;2023-03-04T09:43:16;7.60;99.90
43249;DHT22;29216;51.248;6.808;2023-03-04T09:45:47;7.80;99.90
43249;DHT22;29216;51.248;6.808;2023-03-04T09:48:17;8.00;99.90
43249;DHT22;29216;51.248;6.808;2023-03-04T09:53:31;8.10;99.90
43249;DHT22;29216;51.248;6.808;2023-03-04T09:55:59;8.20;99.90
43249;DHT22;29216;51.248;6.808;2023-03-04T10:02:12;8.20;99.90
43249;DHT22;29216;51.248;6.808;2023-03-04T10:06:43;8.40;99.90
43249;DHT22;29216;51.248;6.808;2023-03-04T10:09:25;8.40;99.90
43249;DHT22;29216;51.248;6.808;2023-03-04T10:12:11;8.40;99.90
43249;DHT22;29216;51.248;6.808;2023-03-04T10:14:53;8.40;99.90
43249;DHT22;29216;51.248;6.808;2023-03-04T10:17:37;8.40;99.90
43249;DHT22;29216;51.248;6.808;2023-03-04T10:20:35;8.60;99.90
43249;DHT22;29216;51.248;6.808;2023-03-04T10:23:10;8.70;99.90
43249;DHT22;29216;51.248;6.808;2023-03-04T10:25:42;9.00;99.90
43249;DHT22;29216;51.248;6.808;2023-03-04T10:30:54;9.30;99.90
43249;DHT22;29216;51.248;6.808;2023-03-04T10:33:25;9.30;99.90
43249;DHT22;29216;51.248;6.808;2023-03-04T10:36:03;9.40;99.90
43249;DHT22;29216;51.248;6.808;2023-03-04T10:38:35;9.20;99.90
43249;DHT22;29216;51.248;6.808;2023-03-04T10:41:11;9.00;99.90
43249;DHT22;29216;51.248;6.808;2023-03-04T10:43:37;9.00;99.90
43249;DHT22;29216;51.248;6.808;2023-03-04T10:46:03;8.90;99.90
43249;DHT22;29216;51.248;6.808;2023-03-04T10:48:31;9.00;99.90
43249;DHT22;29216;51.248;6.808;2023-03-04T10:51:18;9.00;99.90
43249;DHT22;29216;51.248;6.808;2023-03-04T10:53:45;9.00;99.90
43249;DHT22;29216;51.248;6.808;2023-03-04T10:59:38;9.00;99.90
43249;DHT22;29216;51.248;6.808;2023-03-04T11:04:35;9.10;99.90
43249;DHT22;29216;51.248;6.808;2023-03-04T11:07:01;9.20;99.90
43249;DHT22;29216;51.248;6.808;2023-03-04T11:09:32;9.10;99.90
43249;DHT22;29216;51.248;6.808;2023-03-04T11:11:59;9.00;99.90
43249;DHT22;29216;51.248;6.808;2023-03-04T11:17:01;8.90;99.90
43249;DHT22;29216;51.248;6.808;2023-03-04T11:19:36;9.00;99.90
43249;DHT22;29216;51.248;6.808;2023-03-04T11:22:03;9.10;99.90
43249;DHT22;29216;51.248;6.808;2023-03-04T11:24:31;9.30;99.90
43249;DHT22;29216;51.248;6.808;2023-03-04T11:27:14;9.40;99.90
43249;DHT22;29216;51.248;6.808;2023-03-04T11:29:53;9.60;99.90
43249;DHT22;29216;51.248;6.808;2023-03-04T11:32:23;9.60;99.90
43249;DHT22;29216;51.248;6.808;2023-03-04T12:00:17;9.80;99.90
43249;DHT22;29216;51.248;6.808;2023-03-04T12:02:22;9.70;99.90
43249;DHT22;29216;51.248;6.808;2023-03-04T12:13:00;9.80;99.90
43249;DHT22;29216;51.248;6.808;2023-03-04T12:23:51;9.30;99.90
43249;DHT22;29216;51.248;6.808;2023-03-04T12:29:00;9.30;99.90
43249;DHT22;29216;51.248;6.808;2023-03-04T12:42:39;9.80;99.90
43249;DHT22;29216;51.248;6.808;2023-03-04T12:55:43;9.80;99.90
43249;DHT22;29216;51.248;6.808;2023-03-04T12:58:20;9.80;99.90
43249;DHT22;29216;51.248;6.808;2023-03-04T13:00:49;9.70;99.90
43249;DHT22;29216;51.248;6.808;2023-03-04T13:05:59;9.50;99.90
43249;DHT22;29216;51.248;6.808;2023-03-04T13:16:59;9.20;99.90
43249;DHT22;29216;51.248;6.808;2023-03-04T13:19:49;9.10;99.90
43249;DHT22;29216;51.248;6.808;2023-03-04T13:25:31;8.90;99.90
43249;DHT22;29216;51.248;6.808;2023-03-04T13:51:33;8.80;99.90
43249;DHT22;29216;51.248;6.808;2023-03-04T14:02:17;9.00;99.90
43249;DHT22;29216;51.248;6.808;2023-03-04T14:05:05;9.10;99.90
43249;DHT22;29216;51.248;6.808;2023-03-04T14:07:35;9.20;99.90
43249;DHT22;29216;51.248;6.808;2023-03-04T14:12:35;9.30;99.90
43249;DHT22;29216;51.248;6.808;2023-03-04T14:15:05;9.30;99.90
43249;DHT22;29216;51.248;6.808;2023-03-04T14:17:45;9.30;99.90
43249;DHT22;29216;51.248;6.808;2023-03-04T14:20:47;9.30;99.90
43249;DHT22;29216;51.248;6.808;2023-03-04T14:23:41;9.40;99.90
43249;DHT22;29216;51.248;6.808;2023-03-04T14:28:45;9.50;99.90
43249;DHT22;29216;51.248;6.808;2023-03-04T14:31:19;9.40;99.90
43249;DHT22;29216;51.248;6.808;2023-03-04T14:33:48;9.40;99.90
43249;DHT22;29216;51.248;6.808;2023-03-04T14:36:19;9.40;99.90
43249;DHT22;29216;51.248;6.808;2023-03-04T14:38:52;9.40;99.90
43249;DHT22;29216;51.248;6.808;2023-03-04T14:46:31;9.20;99.90
43249;DHT22;29216;51.248;6.808;2023-03-04T14:48:59;9.20;99.90
43249;DHT22;29216;51.248;6.808;2023-03-04T14:51:47;9.20;99.90
43249;DHT22;29216;51.248;6.808;2023-03-04T14:54:33;9.10;99.90
43249;DHT22;29216;51.248;6.808;2023-03-04T14:59:46;9.00;99.90
43249;DHT22;29216;51.248;6.808;2023-03-04T15:02:23;9.00;99.90
43249;DHT22;29216;51.248;6.808;2023-03-04T15:04:54;8.90;99.90
43249;DHT22;29216;51.248;6.808;2023-03-04T15:07:29;8.90;99.90
43249;DHT22;29216;51.248;6.808;2023-03-04T15:09:56;8.80;99.90
43249;DHT22;29216;51.248;6.808;2023-03-04T15:12:30;8.80;99.90
43249;DHT22;29216;51.248;6.808;2023-03-04T15:14:58;8.70;99.90
43249;DHT22;29216;51.248;6.808;2023-03-04T15:17:38;8.60;99.90
43249;DHT22;29216;51.248;6.808;2023-03-04T15:25:18;8.60;99.90
43249;DHT22;29216;51.248;6.808;2023-03-04T15:27:45;8.60;99.90
43249;DHT22;29216;51.248;6.808;2023-03-04T15:30:17;8.60;99.90
43249;DHT22;29216;51.248;6.808;2023-03-04T15:32:43;8.50;99.90
43249;DHT22;29216;51.248;6.808;2023-03-04T15:35:12;8.40;99.90
43249;DHT22;29216;51.248;6.808;2023-03-04T15:37:38;8.30;99.90
43249;DHT22;29216;51.248;6.808;2023-03-04T15:40:33;8.30;99.90
43249;DHT22;29216;51.248;6.808;2023-03-04T15:42:59;8.20;99.90
43249;DHT22;29216;51.248;6.808;2023-03-04T15:45:29;8.10;18.10
43249;DHT22;29216;51.248;6.808;2023-03-04T15:47:55;8.10;2.50
43249;DHT22;29216;51.248;6.808;2023-03-04T15:50:21;8.10;17.40
43249;DHT22;29216;51.248;6.808;2023-03-04T15:52:51;8.00;35.10
43249;DHT22;29216;51.248;6.808;2023-03-04T15:55:20;8.00;39.40
43249;DHT22;29216;51.248;6.808;2023-03-04T15:57:51;8.00;32.30
43249;DHT22;29216;51.248;6.808;2023-03-04T16:00:18;8.00;32.10
43249;DHT22;29216;51.248;6.808;2023-03-04T16:02:44;8.00;29.80
43249;DHT22;29216;51.248;6.808;2023-03-04T16:05:11;8.00;26.50
43249;DHT22;29216;51.248;6.808;2023-03-04T16:07:37;7.90;34.20
43249;DHT22;29216;51.248;6.808;2023-03-04T16:10:07;7.90;34.90
43249;DHT22;29216;51.248;6.808;2023-03-04T16:12:36;7.90;33.70
43249;DHT22;29216;51.248;6.808;2023-03-04T16:15:05;8.00;27.00
43249;DHT22;29216;51.248;6.808;2023-03-04T16:17:31;8.00;27.40
43249;DHT22;29216;51.248;6.808;2023-03-04T16:19:56;7.90;28.50
43249;DHT22;29216;51.248;6.808;2023-03-04T16:22:24;7.70;35.50
43249;DHT22;29216;51.248;6.808;2023-03-04T16:24:53;7.50;29.70
43249;DHT22;29216;51.248;6.808;2023-03-04T16:27:19;7.50;27.90
43249;DHT22;29216;51.248;6.808;2023-03-04T16:29:46;7.50;20.80
43249;DHT22;29216;51.248;6.808;2023-03-04T16:32:12;7.40;5.30
43249;DHT22;29216;51.248;6.808;2023-03-04T16:34:38;7.40;16.40
43249;DHT22;29216;51.248;6.808;2023-03-04T16:37:06;7.40;25.90
43249;DHT22;29216;51.248;6.808;2023-03-04T16:39:36;7.40;9.70
43249;DHT22;29216;51.248;6.808;2023-03-04T16:42:02;7.40;3.90
43249;DHT22;29216;51.248;6.808;2023-03-04T16:44:28;7.40;1.00
43249;DHT22;29216;51.248;6.808;2023-03-04T16:46:53;7.50;1.00
43249;DHT22;29216;51.248;6.808;2023-03-04T16:49:19;7.40;1.00
43249;DHT22;29216;51.248;6.808;2023-03-04T16:51:47;7.40;1.00
43249;DHT22;29216;51.248;6.808;2023-03-04T16:54:28;7.40;1.00
43249;DHT22;29216;51.248;6.808;2023-03-04T16:56:55;7.50;1.00
43249;DHT22;29216;51.248;6.808;2023-03-04T16:59:21;7.50;1.00
43249;DHT22;29216;51.248;6.808;2023-03-04T17:01:47;7.50;6.40
43249;DHT22;29216;51.248;6.808;2023-03-04T17:04:13;7.60;44.50
43249;DHT22;29216;51.248;6.808;2023-03-04T17:06:39;7.50;91.00
43249;DHT22;29216;51.248;6.808;2023-03-04T17:09:06;7.60;95.20
43249;DHT22;29216;51.248;6.808;2023-03-04T17:11:32;7.50;96.70
43249;DHT22;29216;51.248;6.808;2023-03-04T17:13:58;7.50;99.90
43249;DHT22;29216;51.248;6.808;2023-03-04T17:16:23;7.50;99.90
43249;DHT22;29216;51.248;6.808;2023-03-04T17:18:49;7.40;99.90
43249;DHT22;29216;51.248;6.808;2023-03-04T17:21:17;7.40;99.90
43249;DHT22;29216;51.248;6.808;2023-03-04T17:23:43;7.40;99.90
43249;DHT22;29216;51.248;6.808;2023-03-04T17:26:09;7.30;99.90
43249;DHT22;29216;51.248;6.808;2023-03-04T17:28:35;7.30;99.90
43249;DHT22;29216;51.248;6.808;2023-03-04T17:31:01;7.30;99.90
43249;DHT22;29216;51.248;6.808;2023-03-04T17:33:32;7.40;99.90
43249;DHT22;29216;51.248;6.808;2023-03-04T17:35:57;7.40;99.90
43249;DHT22;29216;51.248;6.808;2023-03-04T17:38:23;7.30;99.60
43249;DHT22;29216;51.248;6.808;2023-03-04T17:40:49;7.30;99.90
43249;DHT22;29216;51.248;6.808;2023-03-04T17:43:14;7.30;99.90
43249;DHT22;29216;51.248;6.808;2023-03-04T17:45:41;7.30;99.90
43249;DHT22;29216;51.248;6.808;2023-03-04T17:48:08;7.30;99.90
43249;DHT22;29216;51.248;6.808;2023-03-04T17:50:50;7.30;99.90
43249;DHT22;29216;51.248;6.808;2023-03-04T17:53:16;7.40;99.90
43249;DHT22;29216;51.248;6.808;2023-03-04T17:55:51;7.40;99.90
43249;DHT22;29216;51.248;6.808;2023-03-04T17:58:17;7.40;99.90
43249;DHT22;29216;51.248;6.808;2023-03-04T18:00:43;7.40;99.90
43249;DHT22;29216;51.248;6.808;2023-03-04T18:03:13;7.40;99.90
43249;DHT22;29216;51.248;6.808;2023-03-04T18:05:39;7.40;99.90
43249;DHT22;29216;51.248;6.808;2023-03-04T18:08:05;7.40;99.90
43249;DHT22;29216;51.248;6.808;2023-03-04T18:10:31;7.40;99.90
43249;DHT22;29216;51.248;6.808;2023-03-04T18:12:57;7.40;99.90
43249;DHT22;29216;51.248;6.808;2023-03-04T18:15:23;7.40;99.90
43249;DHT22;29216;51.248;6.808;2023-03-04T18:17:48;7.40;99.90
43249;DHT22;29216;51.248;6.808;2023-03-04T18:20:15;7.50;99.90
43249;DHT22;29216;51.248;6.808;2023-03-04T18:22:41;7.40;99.90
43249;DHT22;29216;51.248;6.808;2023-03-04T18:25:07;7.40;99.90
43249;DHT22;29216;51.248;6.808;2023-03-04T18:27:35;7.40;99.90